createdAt,value
2018-05-07T00:00:51.968Z,97087.55
2018-05-07T00:03:19.412Z,97081.34
2018-05-07T00:05:46.853Z,97086.62
2018-05-07T00:08:14.249Z,97087.32
2018-05-07T00:10:41.992Z,97090.18
2018-05-07T00:13:09.427Z,97086.64
2018-05-07T00:15:36.958Z,97088.22
2018-05-07T00:18:05.221Z,97092.38
2018-05-07T00:20:32.712Z,97090.81
2018-05-07T00:23:00.175Z,97078.28
2018-05-07T00:25:28.234Z,97086.42
2018-05-07T00:27:55.639Z,97088.36
2018-05-07T00:30:23.043Z,97087.20
2018-05-07T00:32:50.492Z,97090.85
2018-05-07T00:35:17.895Z,97088.97
2018-05-07T00:37:45.372Z,97093.67
2018-05-07T00:40:12.818Z,97096.52
2018-05-07T00:42:40.288Z,97089.14
2018-05-07T00:45:07.776Z,97096.44
2018-05-07T00:47:35.222Z,97091.55
2018-05-07T00:50:02.610Z,97099.12
2018-05-07T00:52:30.074Z,97092.53
2018-05-07T00:55:09.211Z,97096.73
2018-05-07T00:57:36.715Z,97093.63
2018-05-07T01:00:04.240Z,97100.26
2018-05-07T01:02:31.713Z,97101.85
2018-05-07T01:04:59.155Z,97105.62
2018-05-07T01:07:26.582Z,97106.31
2018-05-07T01:09:54.076Z,97113.75
2018-05-07T01:12:21.522Z,97112.59
2018-05-07T01:14:48.953Z,97110.46
2018-05-07T01:17:16.388Z,97110.33
2018-05-07T01:19:43.841Z,97105.11
2018-05-07T01:22:11.278Z,97111.33
2018-05-07T01:24:38.683Z,97114.44
2018-05-07T01:27:06.645Z,97108.58
2018-05-07T01:29:34.043Z,97111.87
2018-05-07T01:32:01.450Z,97111.91
2018-05-07T01:34:28.881Z,97116.14
2018-05-07T01:36:56.324Z,97115.48
2018-05-07T01:39:23.826Z,97108.99
2018-05-07T01:41:51.269Z,97103.42
2018-05-07T01:44:18.714Z,97109.75
2018-05-07T01:46:46.190Z,97109.75
2018-05-07T01:49:13.726Z,97109.63
2018-05-07T01:51:41.290Z,97119.25
2018-05-07T01:54:08.935Z,97119.75
2018-05-07T01:56:36.337Z,97122.95
2018-05-07T01:59:03.774Z,97116.08
2018-05-07T02:01:31.195Z,97115.25
2018-05-07T02:03:58.668Z,97120.05
2018-05-07T02:06:26.063Z,97119.34
2018-05-07T02:08:53.488Z,97120.05
2018-05-07T02:11:20.929Z,97124.85
2018-05-07T02:13:48.399Z,97124.73
2018-05-07T02:16:16.339Z,97129.33
2018-05-07T02:18:43.783Z,97126.26
2018-05-07T02:21:12.084Z,97125.70
2018-05-07T02:23:40.087Z,97123.76
2018-05-07T02:26:07.740Z,97129.81
2018-05-07T02:28:35.142Z,97121.66
2018-05-07T02:31:02.767Z,97121.11
2018-05-07T02:33:30.208Z,97118.93
2018-05-07T02:35:57.623Z,97119.71
2018-05-07T02:38:25.072Z,97125.01
2018-05-07T02:40:52.689Z,97129.91
2018-05-07T02:43:20.166Z,97132.84
2018-05-07T02:45:47.803Z,97125.64
2018-05-07T02:48:15.255Z,97125.02
2018-05-07T02:50:42.725Z,97132.84
2018-05-07T02:53:10.122Z,97125.84
2018-05-07T02:55:37.571Z,97122.57
2018-05-07T02:58:05.018Z,97120.96
2018-05-07T03:00:32.449Z,97115.95
2018-05-07T03:02:59.885Z,97124.09
2018-05-07T03:05:27.350Z,97128.69
2018-05-07T03:07:54.831Z,97124.30
2018-05-07T03:10:22.330Z,97123.05
2018-05-07T03:12:49.793Z,97131.30
2018-05-07T03:15:17.258Z,97135.28
2018-05-07T03:17:44.778Z,97123.66
2018-05-07T03:20:12.240Z,97128.52
2018-05-07T03:22:39.680Z,97131.09
2018-05-07T03:25:07.383Z,97122.86
2018-05-07T03:27:34.783Z,97121.41
2018-05-07T03:30:02.359Z,97121.25
2018-05-07T03:32:29.800Z,97122.52
2018-05-07T03:34:57.212Z,97118.67
2018-05-07T03:37:24.622Z,97113.05
2018-05-07T03:39:52.905Z,97117.07
2018-05-07T03:42:20.381Z,97115.08
2018-05-07T03:44:47.813Z,97115.71
2018-05-07T03:47:15.991Z,97110.45
2018-05-07T03:49:43.474Z,97105.61
2018-05-07T03:52:10.982Z,97111.16
2018-05-07T03:54:38.390Z,97107.34
2018-05-07T03:57:05.856Z,97109.73
2018-05-07T03:59:33.300Z,97104.87
2018-05-07T04:02:00.702Z,97110.91
2018-05-07T04:04:28.114Z,97105.20
2018-05-07T04:06:55.636Z,97104.83
2018-05-07T04:09:23.156Z,97108.67
2018-05-07T04:11:50.640Z,97106.44
2018-05-07T04:14:18.076Z,97101.56
2018-05-07T04:16:57.413Z,97109.36
2018-05-07T04:19:36.719Z,97108.52
2018-05-07T04:22:15.789Z,97113.55
2018-05-07T04:24:43.267Z,97110.56
2018-05-07T04:27:10.757Z,97121.84
2018-05-07T04:29:38.215Z,97115.86
2018-05-07T04:32:05.731Z,97113.72
2018-05-07T04:34:33.163Z,97127.09
2018-05-07T04:37:00.597Z,97119.92
2018-05-07T04:39:28.363Z,97122.47
2018-05-07T04:41:55.812Z,97124.00
2018-05-07T04:44:23.228Z,97120.72
2018-05-07T04:46:50.666Z,97122.83
2018-05-07T04:49:18.085Z,97122.06
2018-05-07T04:51:45.536Z,97124.47
2018-05-07T04:54:12.969Z,97119.77
2018-05-07T04:56:40.441Z,97114.02
2018-05-07T04:59:07.942Z,97116.29
2018-05-07T05:01:35.392Z,97128.94
2018-05-07T05:04:02.802Z,97128.76
2018-05-07T05:06:30.239Z,97136.30
2018-05-07T05:08:57.647Z,97128.80
2018-05-07T05:11:25.055Z,97118.27
2018-05-07T05:13:52.473Z,97125.88
2018-05-07T05:16:19.880Z,97121.95
2018-05-07T05:18:47.324Z,97121.58
2018-05-07T05:21:14.912Z,97116.36
2018-05-07T05:23:42.178Z,97115.64
2018-05-07T05:26:09.614Z,97120.59
2018-05-07T05:28:37.084Z,97122.56
2018-05-07T05:31:04.612Z,97116.46
2018-05-07T05:33:32.227Z,97118.88
2018-05-07T05:35:59.764Z,97124.12
2018-05-07T05:38:27.261Z,97120.39
2018-05-07T05:40:54.942Z,97116.55
2018-05-07T05:43:22.452Z,97110.22
2018-05-07T05:45:49.936Z,97111.84
2018-05-07T05:48:17.388Z,97109.14
2018-05-07T05:50:44.993Z,97113.72
2018-05-07T05:53:12.468Z,97111.06
2018-05-07T05:55:39.954Z,97115.52
2018-05-07T05:58:07.438Z,97114.12
2018-05-07T06:00:34.850Z,97114.61
2018-05-07T06:03:02.309Z,97115.88
2018-05-07T06:05:29.800Z,97115.25
2018-05-07T06:07:57.251Z,97115.48
2018-05-07T06:10:24.724Z,97117.47
2018-05-07T06:12:52.172Z,97110.52
2018-05-07T06:15:19.604Z,97105.89
2018-05-07T06:17:47.077Z,97110.20
2018-05-07T06:20:14.540Z,97110.17
2018-05-07T06:22:41.943Z,97110.69
2018-05-07T06:25:09.710Z,97110.92
2018-05-07T06:27:37.381Z,97118.58
2018-05-07T06:30:04.847Z,97117.20
2018-05-07T06:32:32.505Z,97125.94
2018-05-07T06:34:59.947Z,97124.39
2018-05-07T06:37:27.391Z,97119.31
2018-05-07T06:39:54.875Z,97117.36
2018-05-07T06:42:22.310Z,97117.45
2018-05-07T06:44:49.768Z,97121.20
2018-05-07T06:47:17.191Z,97117.37
2018-05-07T06:49:44.642Z,97109.05
2018-05-07T06:52:12.116Z,97109.55
2018-05-07T06:54:39.603Z,97107.05
2018-05-07T06:57:07.187Z,97109.80
2018-05-07T06:59:34.621Z,97110.49
2018-05-07T07:02:02.172Z,97108.55
2018-05-07T07:04:29.587Z,97113.53
2018-05-07T07:06:56.987Z,97113.53
2018-05-07T07:09:24.507Z,97115.22
2018-05-07T07:11:51.917Z,97119.17
2018-05-07T07:14:19.401Z,97118.61
2018-05-07T07:16:46.840Z,97119.16
2018-05-07T07:19:14.482Z,97116.09
2018-05-07T07:21:42.184Z,97123.66
2018-05-07T07:24:09.587Z,97121.18
2018-05-07T07:26:37.050Z,97120.62
2018-05-07T07:29:04.530Z,97119.52
2018-05-07T07:31:31.972Z,97116.77
2018-05-07T07:33:59.487Z,97118.34
2018-05-07T07:36:26.916Z,97119.95
2018-05-07T07:38:54.340Z,97110.72
2018-05-07T07:41:22.360Z,97108.80
2018-05-07T07:43:49.823Z,97109.69
2018-05-07T07:46:17.267Z,97111.39
2018-05-07T07:48:44.657Z,97104.86
2018-05-07T07:51:12.427Z,97106.46
2018-05-07T07:53:39.894Z,97103.50
2018-05-07T07:56:07.352Z,97105.30
2018-05-07T07:58:35.173Z,97101.23
2018-05-07T08:01:02.918Z,97106.45
2018-05-07T08:03:30.323Z,97106.39
2018-05-07T08:05:57.760Z,97103.13
2018-05-07T08:08:25.174Z,97109.98
2018-05-07T08:10:52.663Z,97106.54
2018-05-07T08:13:20.095Z,97101.48
2018-05-07T08:15:47.499Z,97099.06
2018-05-07T08:18:14.949Z,97097.28
2018-05-07T08:20:42.377Z,97095.39
2018-05-07T08:23:09.792Z,97085.99
2018-05-07T08:25:37.277Z,97081.48
2018-05-07T08:28:04.767Z,97078.29
2018-05-07T08:30:32.262Z,97077.68
2018-05-07T08:32:59.835Z,97072.70
2018-05-07T08:35:27.314Z,97074.00
2018-05-07T08:37:54.717Z,97075.80
2018-05-07T08:40:22.139Z,97067.34
2018-05-07T08:42:50.202Z,97064.73
2018-05-07T08:45:17.667Z,97069.66
2018-05-07T08:47:45.088Z,97064.94
2018-05-07T08:50:12.493Z,97065.30
2018-05-07T08:52:39.912Z,97059.13
2018-05-07T08:55:07.349Z,97061.78
2018-05-07T08:57:35.126Z,97059.63
2018-05-07T09:00:02.600Z,97056.80
2018-05-07T09:02:30.037Z,97060.38
2018-05-07T09:04:57.491Z,97058.05
2018-05-07T09:07:24.958Z,97055.98
2018-05-07T09:09:52.436Z,97053.00
2018-05-07T09:12:19.919Z,97050.91
2018-05-07T09:14:47.366Z,97051.17
2018-05-07T09:17:14.798Z,97048.50
2018-05-07T09:19:42.243Z,97050.27
2018-05-07T09:22:09.657Z,97050.61
2018-05-07T09:24:37.165Z,97047.53
2018-05-07T09:27:04.616Z,97045.69
2018-05-07T09:29:32.061Z,97045.10
2018-05-07T09:31:59.462Z,97044.45
2018-05-07T09:34:27.169Z,97052.77
2018-05-07T09:36:54.641Z,97042.39
2018-05-07T09:39:22.072Z,97045.09
2018-05-07T09:41:49.564Z,97037.69
2018-05-07T09:44:17.007Z,97039.84
2018-05-07T09:46:44.627Z,97030.50
2018-05-07T09:49:12.103Z,97037.00
2018-05-07T09:51:39.625Z,97032.15
2018-05-07T09:54:07.094Z,97034.90
2018-05-07T09:56:46.328Z,97024.94
2018-05-07T09:59:13.744Z,97019.13
2018-05-07T10:01:41.175Z,97017.56
2018-05-07T10:04:08.576Z,97012.20
2018-05-07T10:06:36.040Z,97011.73
2018-05-07T10:09:03.507Z,97010.63
2018-05-07T10:11:30.949Z,97006.45
2018-05-07T10:13:58.360Z,96996.21
2018-05-07T10:16:25.863Z,96995.64
2018-05-07T10:18:53.321Z,96983.00
2018-05-07T10:21:20.753Z,96980.30
2018-05-07T10:23:48.187Z,96986.88
2018-05-07T10:26:15.614Z,96977.17
2018-05-07T10:28:43.104Z,96973.81
2018-05-07T10:31:10.573Z,96973.59
2018-05-07T10:33:37.969Z,96969.59
2018-05-07T10:36:05.414Z,96968.37
2018-05-07T10:38:32.827Z,96968.09
2018-05-07T10:41:00.284Z,96970.74
2018-05-07T10:43:27.720Z,96960.45
2018-05-07T10:45:55.209Z,96951.83
2018-05-07T10:48:22.690Z,96951.60
2018-05-07T10:50:50.162Z,96945.78
2018-05-07T10:53:17.556Z,96945.15
2018-05-07T10:55:44.995Z,96950.51
2018-05-07T10:58:12.399Z,96936.00
2018-05-07T11:00:39.897Z,96940.69
2018-05-07T11:03:09.112Z,96930.31
2018-05-07T11:05:36.573Z,96932.28
2018-05-07T11:08:04.082Z,96917.34
2018-05-07T11:10:31.514Z,96914.88
2018-05-07T11:12:58.912Z,96913.20
2018-05-07T11:15:26.424Z,96909.02
2018-05-07T11:17:53.838Z,96903.84
2018-05-07T11:20:21.281Z,96904.45
2018-05-07T11:22:48.714Z,96900.68
2018-05-07T11:25:16.195Z,96900.04
2018-05-07T11:27:43.587Z,96898.80
2018-05-07T11:30:11.065Z,96887.11
2018-05-07T11:32:38.549Z,96892.31
2018-05-07T11:35:06.029Z,96884.34
2018-05-07T11:37:33.453Z,96872.12
2018-05-07T11:40:00.898Z,96871.19
2018-05-07T11:42:28.727Z,96866.27
2018-05-07T11:44:56.135Z,96859.13
2018-05-07T11:47:23.953Z,96848.03
2018-05-07T11:49:51.411Z,96843.72
2018-05-07T11:52:18.995Z,96850.16
2018-05-07T11:54:46.495Z,96840.11
2018-05-07T11:57:13.929Z,96835.77
2018-05-07T11:59:41.332Z,96823.59
2018-05-07T12:02:08.820Z,96826.40
2018-05-07T12:04:36.230Z,96820.39
2018-05-07T12:07:03.677Z,96823.25
2018-05-07T12:09:31.115Z,96817.13
2018-05-07T12:11:58.528Z,96813.33
2018-05-07T12:14:25.977Z,96813.00
2018-05-07T12:16:53.439Z,96804.42
2018-05-07T12:19:21.428Z,96798.95
2018-05-07T12:21:48.980Z,96798.52
2018-05-07T12:24:16.453Z,96801.94
2018-05-07T12:26:43.849Z,96795.30
2018-05-07T12:29:11.259Z,96789.84
2018-05-07T12:31:38.839Z,96782.98
2018-05-07T12:34:06.143Z,96777.37
2018-05-07T12:36:36.479Z,96776.73
2018-05-07T12:39:04.040Z,96762.96
2018-05-07T12:41:31.457Z,96764.55
2018-05-07T12:43:58.895Z,96759.52
2018-05-07T12:46:26.302Z,96756.27
2018-05-07T12:48:53.751Z,96749.58
2018-05-07T12:51:21.222Z,96748.44
2018-05-07T12:53:48.796Z,96750.98
2018-05-07T12:56:16.229Z,96742.96
2018-05-07T12:58:43.672Z,96744.14
2018-05-07T13:01:11.122Z,96738.02
2018-05-07T13:03:38.692Z,96727.41
2018-05-07T13:06:06.089Z,96729.17
2018-05-07T13:08:33.560Z,96724.72
2018-05-07T13:11:00.974Z,96722.97
2018-05-07T13:13:28.431Z,96725.09
2018-05-07T13:15:56.831Z,96722.46
2018-05-07T13:18:24.308Z,96712.30
2018-05-07T13:20:51.785Z,96713.23
2018-05-07T13:23:19.262Z,96716.51
2018-05-07T13:25:46.700Z,96713.54
2018-05-07T13:28:14.133Z,96712.46
2018-05-07T13:30:41.672Z,96701.98
2018-05-07T13:33:09.098Z,96699.36
2018-05-07T13:35:36.595Z,96690.77
2018-05-07T13:38:04.195Z,96693.02
2018-05-07T13:40:31.697Z,96683.38
2018-05-07T13:42:59.163Z,96678.59
2018-05-07T13:45:26.619Z,96681.45
2018-05-07T13:47:54.097Z,96676.08
2018-05-07T13:50:21.576Z,96679.71
2018-05-07T13:52:49.287Z,96670.69
2018-05-07T13:55:16.828Z,96664.66
2018-05-07T13:57:44.335Z,96664.59
2018-05-07T14:00:11.818Z,96659.02
2018-05-07T14:02:39.341Z,96658.09
2018-05-07T14:05:06.952Z,96655.81
2018-05-07T14:07:34.416Z,96659.14
2018-05-07T14:10:01.863Z,96659.78
2018-05-07T14:12:29.421Z,96653.48
2018-05-07T14:14:57.251Z,96652.81
2018-05-07T14:17:24.690Z,96646.98
2018-05-07T14:19:52.209Z,96653.83
2018-05-07T14:22:19.614Z,96647.36
2018-05-07T14:24:47.130Z,96644.72
2018-05-07T14:27:14.616Z,96647.25
2018-05-07T14:29:42.047Z,96645.22
2018-05-07T14:32:09.540Z,96636.72
2018-05-07T14:34:37.080Z,96635.03
2018-05-07T14:37:04.565Z,96631.73
2018-05-07T14:39:32.418Z,96625.03
2018-05-07T14:41:59.859Z,96618.47
2018-05-07T14:44:27.345Z,96623.34
2018-05-07T14:46:54.830Z,96622.99
2018-05-07T14:49:22.309Z,96631.14
2018-05-07T14:51:49.794Z,96624.91
2018-05-07T14:54:17.302Z,96621.53
2018-05-07T14:56:44.762Z,96620.27
2018-05-07T14:59:12.269Z,96623.27
2018-05-07T15:01:39.664Z,96621.66
2018-05-07T15:04:07.895Z,96619.98
2018-05-07T15:06:35.341Z,96623.58
2018-05-07T15:09:02.764Z,96623.47
2018-05-07T15:11:30.198Z,96627.62
2018-05-07T15:14:09.562Z,96622.27
2018-05-07T15:16:36.985Z,96620.13
2018-05-07T15:19:04.451Z,96615.91
2018-05-07T15:21:31.928Z,96605.42
2018-05-07T15:23:59.399Z,96606.91
2018-05-07T15:26:26.823Z,96608.48
2018-05-07T15:28:54.276Z,96600.80
2018-05-07T15:31:21.711Z,96609.56
2018-05-07T15:33:49.178Z,96603.31
2018-05-07T15:36:16.663Z,96611.68
2018-05-07T15:38:44.221Z,96614.61
2018-05-07T15:41:11.762Z,96604.92
2018-05-07T15:43:40.060Z,96607.14
2018-05-07T15:46:07.471Z,96605.17
2018-05-07T15:48:34.960Z,96604.58
2018-05-07T15:51:02.384Z,96599.98
2018-05-07T15:53:29.795Z,96596.93
2018-05-07T15:55:57.400Z,96603.30
2018-05-07T15:58:24.847Z,96599.63
2018-05-07T16:00:52.295Z,96600.61
2018-05-07T16:03:19.893Z,96593.78
2018-05-07T16:05:47.418Z,96592.48
2018-05-07T16:08:14.823Z,96585.98
2018-05-07T16:10:42.433Z,96585.14
2018-05-07T16:13:09.859Z,96587.78
2018-05-07T16:15:37.483Z,96588.72
2018-05-07T16:18:04.986Z,96596.07
2018-05-07T16:20:32.464Z,96594.53
2018-05-07T16:23:00.081Z,96593.72
2018-05-07T16:25:27.584Z,96594.44
2018-05-07T16:27:55.177Z,96586.19
2018-05-07T16:30:22.658Z,96595.27
2018-05-07T16:32:50.181Z,96595.38
2018-05-07T16:35:18.427Z,96585.56
2018-05-07T16:37:45.390Z,96592.60
2018-05-07T16:40:12.930Z,96588.75
2018-05-07T16:42:40.498Z,96580.08
2018-05-07T16:45:07.931Z,96579.45
2018-05-07T16:47:35.494Z,96580.38
2018-05-07T16:50:02.949Z,96583.27
2018-05-07T16:52:30.515Z,96583.57
2018-05-07T16:54:57.915Z,96578.52
2018-05-07T16:57:25.391Z,96575.43
2018-05-07T16:59:53.136Z,96578.11
2018-05-07T17:02:20.572Z,96579.86
2018-05-07T17:04:48.102Z,96581.23
2018-05-07T17:07:15.551Z,96575.20
2018-05-07T17:09:44.000Z,96577.47
2018-05-07T17:12:11.458Z,96573.65
2018-05-07T17:14:39.186Z,96575.11
2018-05-07T17:17:06.728Z,96579.56
2018-05-07T17:19:34.131Z,96575.72
2018-05-07T17:22:01.556Z,96583.03
2018-05-07T17:24:29.089Z,96582.19
2018-05-07T17:26:56.633Z,96587.42
2018-05-07T17:29:24.110Z,96578.31
2018-05-07T17:31:51.569Z,96578.66
2018-05-07T17:34:19.054Z,96583.05
2018-05-07T17:36:46.525Z,96581.03
2018-05-07T17:39:14.007Z,96588.52
2018-05-07T17:41:41.451Z,96595.72
2018-05-07T17:44:20.770Z,96600.58
2018-05-07T17:46:59.975Z,96601.39
2018-05-07T17:49:27.591Z,96609.87
2018-05-07T17:51:54.996Z,96621.50
2018-05-07T17:54:22.527Z,96623.38
2018-05-07T17:56:50.091Z,96624.73
2018-05-07T17:59:17.601Z,96627.47
2018-05-07T18:01:45.022Z,96637.39
2018-05-07T18:04:12.613Z,96630.90
2018-05-07T18:06:40.092Z,96632.76
2018-05-07T18:09:07.581Z,96634.25
2018-05-07T18:11:35.285Z,96642.45
2018-05-07T18:14:02.809Z,96636.38
2018-05-07T18:16:30.603Z,96631.55
2018-05-07T18:18:58.051Z,96634.54
2018-05-07T18:21:25.627Z,96638.01
2018-05-07T18:23:53.121Z,96635.89
2018-05-07T18:26:20.614Z,96639.48
2018-05-07T18:28:48.059Z,96635.75
2018-05-07T18:31:15.639Z,96636.84
2018-05-07T18:33:43.108Z,96640.98
2018-05-07T18:36:11.026Z,96644.28
2018-05-07T18:38:38.395Z,96637.73
2018-05-07T18:41:05.814Z,96646.19
2018-05-07T18:43:33.271Z,96644.20
2018-05-07T18:46:00.948Z,96640.44
2018-05-07T18:48:28.594Z,96644.83
2018-05-07T18:50:56.050Z,96646.52
2018-05-07T18:53:23.521Z,96651.98
2018-05-07T18:55:50.964Z,96649.06
2018-05-07T18:58:18.412Z,96657.36
2018-05-07T19:00:45.913Z,96659.55
2018-05-07T19:03:13.412Z,96657.38
2018-05-07T19:05:40.914Z,96657.66
2018-05-07T19:08:08.328Z,96660.14
2018-05-07T19:10:36.229Z,96664.83
2018-05-07T19:13:03.795Z,96669.19
2018-05-07T19:15:31.218Z,96670.16
2018-05-07T19:17:58.779Z,96668.39
2018-05-07T19:20:26.488Z,96669.83
2018-05-07T19:22:53.945Z,96667.11
2018-05-07T19:25:21.778Z,96679.73
2018-05-07T19:27:49.169Z,96679.98
2018-05-07T19:30:16.701Z,96686.34
2018-05-07T19:32:44.127Z,96683.66
2018-05-07T19:35:11.629Z,96684.16
2018-05-07T19:37:39.476Z,96690.08
2018-05-07T19:40:06.998Z,96691.45
2018-05-07T19:42:34.444Z,96704.05
2018-05-07T19:45:01.882Z,96703.55
2018-05-07T19:47:29.330Z,96706.86
2018-05-07T19:49:57.659Z,96707.30
2018-05-07T19:52:25.090Z,96701.21
2018-05-07T19:54:52.592Z,96702.38
2018-05-07T19:57:20.100Z,96704.58
2018-05-07T19:59:47.579Z,96710.25
2018-05-07T20:02:14.992Z,96711.78
2018-05-07T20:04:42.520Z,96718.23
2018-05-07T20:07:09.973Z,96726.05
2018-05-07T20:09:37.437Z,96731.17
2018-05-07T20:12:04.942Z,96733.67
2018-05-07T20:14:32.427Z,96735.42
2018-05-07T20:16:59.948Z,96739.81
2018-05-07T20:19:27.447Z,96744.89
2018-05-07T20:21:55.107Z,96747.20
2018-05-07T20:24:22.593Z,96765.08
2018-05-07T20:26:50.050Z,96760.28
2018-05-07T20:29:17.511Z,96768.27
2018-05-07T20:31:44.994Z,96763.75
2018-05-07T20:34:12.455Z,96764.93
2018-05-07T20:36:39.879Z,96762.45
2018-05-07T20:39:07.280Z,96762.93
2018-05-07T20:41:34.702Z,96762.75
2018-05-07T20:44:02.296Z,96780.30
2018-05-07T20:46:29.762Z,96777.42
2018-05-07T20:48:57.254Z,96771.03
2018-05-07T20:51:24.747Z,96768.20
2018-05-07T20:53:52.225Z,96782.47
2018-05-07T20:56:19.971Z,96781.38
2018-05-07T20:58:47.438Z,96777.48
2018-05-07T21:01:14.905Z,96772.78
2018-05-07T21:03:42.305Z,96771.47
2018-05-07T21:06:09.787Z,96772.20
2018-05-07T21:08:37.637Z,96766.72
2018-05-07T21:11:05.059Z,96774.36
2018-05-07T21:13:32.495Z,96777.45
2018-05-07T21:15:59.906Z,96776.25
2018-05-07T21:18:27.340Z,96770.78
2018-05-07T21:20:54.777Z,96777.12
2018-05-07T21:23:22.220Z,96776.70
2018-05-07T21:25:49.871Z,96771.61
2018-05-07T21:28:17.356Z,96774.12
2018-05-07T21:30:44.740Z,96776.61
2018-05-07T21:33:12.178Z,96773.66
2018-05-07T21:35:39.662Z,96781.88
2018-05-07T21:38:07.228Z,96777.66
2018-05-07T21:40:34.692Z,96773.92
2018-05-07T21:43:02.165Z,96776.41
2018-05-07T21:45:29.563Z,96773.22
2018-05-07T21:47:57.032Z,96769.53
2018-05-07T21:50:24.764Z,96774.61
2018-05-07T21:52:52.191Z,96776.53
2018-05-07T21:55:19.662Z,96782.73
2018-05-07T21:57:47.077Z,96778.66
2018-05-07T22:00:14.497Z,96778.97
2018-05-07T22:02:41.965Z,96780.27
2018-05-07T22:05:09.387Z,96776.61
2018-05-07T22:07:36.815Z,96783.11
2018-05-07T22:10:04.293Z,96775.34
2018-05-07T22:12:31.700Z,96763.86
2018-05-07T22:14:59.162Z,96767.58
2018-05-07T22:17:26.594Z,96770.30
2018-05-07T22:19:54.023Z,96765.98
2018-05-07T22:22:21.487Z,96764.54
2018-05-07T22:24:48.962Z,96765.58
2018-05-07T22:27:16.414Z,96762.83
2018-05-07T22:29:43.821Z,96760.55
2018-05-07T22:32:11.327Z,96761.12
2018-05-07T22:34:38.767Z,96759.84
2018-05-07T22:37:06.164Z,96762.05
2018-05-07T22:39:33.638Z,96760.16
2018-05-07T22:42:01.093Z,96758.38
2018-05-07T22:44:28.523Z,96759.53
2018-05-07T22:46:55.999Z,96759.11
2018-05-07T22:49:23.515Z,96762.23
2018-05-07T22:51:50.947Z,96763.38
2018-05-07T22:54:18.403Z,96766.30
2018-05-07T22:56:45.860Z,96760.91
2018-05-07T22:59:13.301Z,96764.19
2018-05-07T23:01:40.810Z,96761.13
2018-05-07T23:04:08.253Z,96759.67
2018-05-07T23:06:35.650Z,96763.16
2018-05-07T23:09:03.133Z,96771.84
2018-05-07T23:11:31.247Z,96771.81
2018-05-07T23:13:58.679Z,96769.10
2018-05-07T23:16:26.156Z,96761.17
2018-05-07T23:18:53.563Z,96760.72
2018-05-07T23:21:22.033Z,96753.11
2018-05-07T23:23:49.571Z,96746.76
2018-05-07T23:26:17.048Z,96748.23
2018-05-07T23:28:44.480Z,96745.71
2018-05-07T23:31:11.948Z,96749.12
2018-05-07T23:33:39.371Z,96743.25
2018-05-07T23:36:06.841Z,96741.52
2018-05-07T23:38:34.279Z,96741.61
2018-05-07T23:41:01.788Z,96736.27
2018-05-07T23:43:29.171Z,96737.41
2018-05-07T23:45:56.562Z,96740.20
2018-05-07T23:48:24.003Z,96741.95
2018-05-07T23:50:51.499Z,96741.34
2018-05-07T23:53:18.919Z,96735.67
2018-05-07T23:55:46.347Z,96731.46
2018-05-07T23:58:14.634Z,96738.87
